Time;durP1;ratioP1;P1;durP2;ratioP2;P2;SDS_P1;SDS_P2;PMS_P1;PMS_P2;Temp;Humidity;BMP_temperature;BMP_pressure;BME280_temperature;BME280_humidity;BME280_pressure;Samples;Min_cycle;Max_cycle;Signal;HPM_P1;HPM_P2
2021/09/06 00:01:01;;;;;;;7.68;6.80;;;16.00;99.90;;;;;;6194457;28;20113;-77
2021/09/06 00:04:02;;;;;;;6.32;5.68;;;16.10;99.90;;;;;;6176725;28;20040;-77
2021/09/06 00:07:02;;;;;;;7.55;6.70;;;15.90;99.90;;;;;;6176745;28;20117;-78
2021/09/06 00:10:34;;;;;;;9.45;6.85;;;16.10;99.90;;;;;;6197363;28;20489;-77
2021/09/06 00:13:34;;;;;;;8.00;7.20;;;16.10;99.90;;;;;;6181042;28;20031;-77
2021/09/06 00:16:35;;;;;;;8.27;6.78;;;15.90;99.90;;;;;;6165053;28;20038;-78
2021/09/06 00:19:35;;;;;;;7.07;6.38;;;16.40;99.90;;;;;;6181111;28;20361;-77
2021/09/06 00:22:36;;;;;;;7.32;6.60;;;16.10;99.90;;;;;;6181245;28;20038;-77
2021/09/06 00:25:38;;;;;;;7.63;6.85;;;16.20;99.90;;;;;;6164814;28;20041;-77
2021/09/06 00:28:38;;;;;;;8.03;6.40;;;15.90;99.90;;;;;;6164538;28;20126;-77
2021/09/06 00:31:39;;;;;;;7.88;6.35;;;;;;;;;;6164534;28;21234;-77
2021/09/06 00:34:40;;;;;;;9.43;6.45;;;16.10;99.90;;;;;;6180218;28;20018;-78
2021/09/06 00:37:40;;;;;;;9.52;6.85;;;16.00;99.90;;;;;;6198304;28;20050;-78
2021/09/06 00:40:41;;;;;;;7.95;6.70;;;16.00;99.90;;;;;;6180308;28;20155;-78
2021/09/06 00:43:43;;;;;;;7.43;6.40;;;15.60;99.90;;;;;;6198225;28;20057;-77
2021/09/06 00:46:46;;;;;;;10.25;6.82;;;15.90;99.90;;;;;;6180277;28;20062;-78
2021/09/06 00:49:47;;;;;;;11.00;6.90;;;15.80;99.90;;;;;;6197982;28;20045;-77
2021/09/06 00:52:48;;;;;;;8.65;6.60;;;15.50;99.90;;;;;;6197858;28;20132;-77
2021/09/06 00:55:50;;;;;;;7.22;6.28;;;15.50;99.90;;;;;;6148334;28;20528;-77
2021/09/06 00:58:51;;;;;;;11.02;6.93;;;15.30;99.90;;;;;;6180235;28;20030;-77
2021/09/06 01:01:51;;;;;;;7.68;6.72;;;15.60;99.90;;;;;;6164080;28;20042;-78
2021/09/06 01:04:52;;;;;;;7.72;6.45;;;15.40;99.90;;;;;;6180288;28;20022;-77
2021/09/06 01:07:52;;;;;;;8.15;6.88;;;15.40;99.90;;;;;;6197171;28;20030;-78
2021/09/06 01:10:53;;;;;;;7.38;6.45;;;15.60;99.90;;;;;;6179724;28;20099;-77
2021/09/06 01:13:54;;;;;;;8.00;6.85;;;15.40;99.90;;;;;;6197044;28;20027;-77
2021/09/06 01:16:55;;;;;;;10.80;7.85;;;;;;;;;;6179556;28;20032;-78
2021/09/06 01:19:55;;;;;;;8.18;6.75;;;15.50;99.90;;;;;;6179252;28;20031;-77
2021/09/06 01:22:56;;;;;;;9.10;7.15;;;15.60;99.90;;;;;;6179608;28;20674;-77
2021/09/06 01:25:56;;;;;;;8.02;7.07;;;15.50;99.90;;;;;;6196958;28;20054;-77
2021/09/06 01:28:57;;;;;;;9.80;7.32;;;15.50;99.90;;;;;;6178847;28;20047;-78
2021/09/06 01:31:58;;;;;;;9.55;7.22;;;15.50;99.90;;;;;;6179321;28;20033;-78
2021/09/06 01:34:58;;;;;;;10.43;7.20;;;15.40;99.90;;;;;;6162997;28;20156;-77
2021/09/06 01:37:59;;;;;;;8.80;7.22;;;15.30;99.90;;;;;;6178873;28;20089;-77
2021/09/06 01:40:59;;;;;;;8.30;6.75;;;15.20;99.90;;;;;;6196357;28;20070;-78
2021/09/06 01:44:00;;;;;;;8.10;6.75;;;15.50;99.90;;;;;;6179121;28;20080;-78
2021/09/06 01:47:01;;;;;;;9.05;7.65;;;15.30;99.90;;;;;;6196733;28;20132;-77
2021/09/06 01:50:01;;;;;;;10.32;7.18;;;15.00;99.90;;;;;;6178971;28;20439;-78
2021/09/06 01:53:02;;;;;;;7.82;6.82;;;15.30;99.90;;;;;;6178692;28;20038;-77
2021/09/06 01:56:03;;;;;;;7.88;6.88;;;15.30;99.90;;;;;;6178363;28;20023;-78
2021/09/06 01:59:04;;;;;;;8.93;6.50;;;15.20;99.90;;;;;;6162911;28;20113;-77
2021/09/06 02:02:04;;;;;;;9.07;6.72;;;15.00;99.90;;;;;;6162185;28;20034;-77
2021/09/06 02:05:05;;;;;;;9.10;7.00;;;14.90;99.90;;;;;;6196375;28;20026;-78
2021/09/06 02:08:06;;;;;;;13.27;6.93;;;15.10;99.90;;;;;;6162244;28;20429;-77
2021/09/06 02:11:07;;;;;;;8.45;6.40;;;14.90;99.90;;;;;;6178178;28;20042;-77
2021/09/06 02:14:07;;;;;;;9.77;7.55;;;14.90;99.90;;;;;;6195708;28;20046;-77
2021/09/06 02:17:08;;;;;;;8.65;6.90;;;15.00;99.90;;;;;;6178409;28;20053;-77
2021/09/06 02:20:09;;;;;;;7.88;6.43;;;14.90;99.90;;;;;;6178212;28;20095;-78
2021/09/06 02:23:09;;;;;;;9.23;7.43;;;14.90;99.90;;;;;;6195386;28;20113;-77
2021/09/06 02:26:10;;;;;;;9.10;6.90;;;14.90;99.90;;;;;;6145986;28;20026;-77
2021/09/06 02:29:11;;;;;;;7.78;6.82;;;15.00;99.90;;;;;;6195491;28;20038;-78
2021/09/06 02:32:11;;;;;;;9.57;7.50;;;15.10;99.90;;;;;;6194763;28;20023;-77
2021/09/06 02:35:12;;;;;;;9.63;6.32;;;15.00;99.90;;;;;;6177838;28;20038;-77
2021/09/06 02:38:12;;;;;;;9.32;7.00;;;14.70;99.90;;;;;;6161453;28;20448;-77
2021/09/06 02:41:13;;;;;;;8.82;7.25;;;14.90;99.90;;;;;;6194957;28;20101;-77
2021/09/06 02:44:14;;;;;;;7.88;6.93;;;15.20;99.90;;;;;;6177685;28;20037;-77
2021/09/06 02:47:15;;;;;;;8.65;6.95;;;14.80;99.90;;;;;;6178073;28;20014;-78
2021/09/06 02:50:16;;;;;;;8.27;6.50;;;;;;;;;;6177293;28;20456;-78
2021/09/06 02:53:16;;;;;;;10.52;7.32;;;14.80;99.90;;;;;;6195229;28;20045;-77
2021/09/06 02:56:17;;;;;;;9.95;7.95;;;;;;;;;;6195137;28;20030;-78
2021/09/06 02:59:18;;;;;;;10.80;7.57;;;14.00;99.90;;;;;;6194964;28;20018;-77
2021/09/06 03:02:19;;;;;;;12.05;7.50;;;;;;;;;;6194781;28;20026;-78
2021/09/06 03:05:20;;;;;;;10.88;7.30;;;14.10;99.90;;;;;;6195082;28;20030;-77
2021/09/06 03:08:20;;;;;;;9.73;7.85;;;14.10;99.90;;;;;;6177365;28;20062;-77
2021/09/06 03:11:24;;;;;;;8.63;7.45;;;;;;;;;;6195047;28;20042;-78
2021/09/06 03:14:25;;;;;;;10.43;7.30;;;14.00;99.90;;;;;;6193147;28;20019;-77
2021/09/06 03:17:25;;;;;;;11.23;7.88;;;14.20;99.90;;;;;;6194276;28;20030;-77
2021/09/06 03:20:26;;;;;;;11.48;7.22;;;14.10;99.90;;;;;;6177121;28;20019;-77
2021/09/06 03:23:27;;;;;;;10.10;7.53;;;14.40;99.90;;;;;;6176793;28;20479;-78
2021/09/06 03:26:27;;;;;;;9.82;7.63;;;14.20;99.90;;;;;;6194441;28;20029;-77
2021/09/06 03:29:28;;;;;;;9.10;7.28;;;14.10;99.90;;;;;;6194692;28;20050;-78
2021/09/06 03:32:28;;;;;;;9.52;7.72;;;14.20;99.90;;;;;;6176793;28;20036;-77
2021/09/06 03:35:29;;;;;;;11.15;8.13;;;14.20;99.90;;;;;;6177208;28;20069;-77
2021/09/06 03:38:30;;;;;;;9.55;7.22;;;14.10;99.90;;;;;;6160794;28;20058;-77
2021/09/06 03:41:32;;;;;;;10.98;7.80;;;14.20;99.90;;;;;;6177124;28;20459;-78
2021/09/06 03:44:33;;;;;;;8.82;7.82;;;14.20;99.90;;;;;;6163047;28;20050;-77
2021/09/06 03:47:33;;;;;;;9.32;7.55;;;14.20;99.90;;;;;;6199461;28;20113;-77
2021/09/06 03:50:34;;;;;;;10.27;7.75;;;14.20;99.90;;;;;;6199217;28;20074;-77
2021/09/06 03:53:35;;;;;;;8.45;7.38;;;14.00;99.90;;;;;;6181310;28;20066;-77
2021/09/06 03:56:35;;;;;;;12.10;7.45;;;14.00;99.90;;;;;;6199289;28;20033;-77
2021/09/06 03:59:36;;;;;;;10.55;7.80;;;14.20;99.90;;;;;;6199161;28;20141;-77
2021/09/06 04:02:36;;;;;;;9.45;8.45;;;14.20;99.90;;;;;;6181350;28;20468;-77
2021/09/06 04:05:37;;;;;;;10.30;7.93;;;14.20;99.90;;;;;;6181438;28;20034;-77
2021/09/06 04:08:38;;;;;;;12.18;8.50;;;14.10;99.90;;;;;;6181516;28;20039;-77
2021/09/06 04:11:38;;;;;;;11.18;8.18;;;13.90;99.90;;;;;;6198605;28;20380;-77
2021/09/06 04:14:39;;;;;;;9.65;8.10;;;14.00;99.90;;;;;;6165300;28;20034;-78
2021/09/06 04:17:39;;;;;;;10.10;7.95;;;14.00;99.90;;;;;;6198379;28;20030;-77
2021/09/06 04:20:40;;;;;;;8.38;7.05;;;14.10;99.90;;;;;;6180796;28;20037;-77
2021/09/06 04:23:42;;;;;;;9.55;8.27;;;14.00;99.90;;;;;;6180577;28;20061;-77
2021/09/06 04:26:43;;;;;;;10.65;8.45;;;;;;;;;;6181285;28;20061;-77
2021/09/06 04:29:44;;;;;;;8.18;7.30;;;14.00;99.90;;;;;;6197952;28;20541;-77
2021/09/06 04:32:44;;;;;;;10.38;8.18;;;13.90;99.90;;;;;;6198405;28;20068;-77
2021/09/06 04:35:45;;;;;;;9.65;7.25;;;13.90;99.90;;;;;;6198223;28;20132;-77
2021/09/06 04:38:46;;;;;;;9.43;7.88;;;;;;;;;;6180390;28;20133;-77
2021/09/06 04:41:46;;;;;;;10.45;8.63;;;13.70;99.90;;;;;;6198120;28;20037;-77
2021/09/06 04:44:47;;;;;;;16.40;8.98;;;13.70;99.90;;;;;;6198373;28;20034;-77
2021/09/06 04:47:47;;;;;;;9.65;8.50;;;13.80;99.90;;;;;;6164528;28;20464;-77
2021/09/06 04:50:48;;;;;;;10.27;7.88;;;13.70;99.90;;;;;;6180253;28;20432;-78
2021/09/06 04:53:49;;;;;;;11.43;7.80;;;;;;;;;;6180218;28;20033;-77
2021/09/06 04:56:50;;;;;;;12.65;8.77;;;13.70;99.90;;;;;;6196450;28;20034;-78
2021/09/06 04:59:50;;;;;;;8.95;7.40;;;13.70;99.90;;;;;;6197950;28;20062;-77
2021/09/06 05:02:51;;;;;;;10.45;7.60;;;13.90;99.90;;;;;;6179762;28;20030;-77
2021/09/06 05:05:51;;;;;;;11.60;7.57;;;13.70;99.90;;;;;;6197518;28;20112;-77
2021/09/06 05:08:52;;;;;;;8.70;7.43;;;13.90;99.90;;;;;;6163694;28;20049;-76
2021/09/06 05:11:52;;;;;;;10.43;7.65;;;13.70;99.90;;;;;;6180054;28;20045;-77
2021/09/06 05:14:53;;;;;;;8.63;7.18;;;13.80;99.90;;;;;;6197345;28;20034;-77
2021/09/06 05:17:55;;;;;;;8.80;7.32;;;13.80;99.90;;;;;;6147523;28;20452;-77
2021/09/06 05:20:56;;;;;;;9.48;8.38;;;14.10;99.90;;;;;;6197446;28;20042;-78
2021/09/06 05:23:58;;;;;;;10.10;8.48;;;13.90;99.90;;;;;;6179555;28;20538;-77
2021/09/06 05:26:59;;;;;;;10.88;8.23;;;14.20;99.90;;;;;;6179651;28;20065;-78
2021/09/06 05:30:03;;;;;;;12.23;8.70;;;14.00;99.90;;;;;;6179173;28;20038;-77
2021/09/06 05:33:07;;;;;;;9.52;7.40;;;14.10;99.90;;;;;;6179623;28;20032;-78
2021/09/06 05:36:10;;;;;;;11.10;8.00;;;;;;;;;;6196781;28;20503;-77
2021/09/06 05:39:11;;;;;;;10.65;8.15;;;15.10;99.90;;;;;;6196875;28;20031;-78
2021/09/06 05:42:27;;;;;;;8.88;7.60;;;15.90;99.90;;;;;;6196900;28;20022;-77
2021/09/06 05:45:27;;;;;;;9.82;7.55;;;16.10;99.90;;;;;;6179145;28;20034;-78
2021/09/06 05:48:28;;;;;;;11.32;7.53;;;;;;;;;;6179111;28;20050;-78
2021/09/06 05:51:29;;;;;;;9.95;7.95;;;17.10;99.90;;;;;;6196298;28;20440;-78
2021/09/06 05:54:30;;;;;;;9.50;7.22;;;16.90;99.90;;;;;;6162669;28;20026;-79
2021/09/06 05:57:31;;;;;;;10.43;7.65;;;;;;;;;;6178523;28;20037;-78
2021/09/06 06:00:31;;;;;;;9.50;8.23;;;17.60;99.90;;;;;;6178819;28;20484;-77
2021/09/06 06:03:32;;;;;;;11.05;8.07;;;18.00;99.90;;;;;;6162556;28;20030;-77
2021/09/06 06:06:32;;;;;;;11.00;7.78;;;18.00;99.90;;;;;;6178708;28;20027;-78
2021/09/06 06:09:33;;;;;;;10.57;8.15;;;18.50;99.90;;;;;;6178602;28;20034;-79
2021/09/06 06:12:34;;;;;;;9.70;7.97;;;18.60;99.90;;;;;;6162204;28;20033;-77
2021/09/06 06:15:35;;;;;;;9.35;8.35;;;18.90;99.90;;;;;;6178713;28;20042;-78
2021/09/06 06:18:36;;;;;;;11.73;7.82;;;19.20;99.90;;;;;;6178062;28;20376;-79
2021/09/06 06:21:37;;;;;;;7.65;6.85;;;19.40;99.90;;;;;;6162001;28;20134;-79
2021/09/06 06:24:38;;;;;;;11.48;7.85;;;;;;;;;;6195652;28;20030;-78
2021/09/06 06:27:38;;;;;;;10.70;8.02;;;19.70;99.90;;;;;;6195596;28;20025;-78
2021/09/06 06:30:39;;;;;;;9.73;8.20;;;19.80;99.90;;;;;;6177765;28;20038;-78
2021/09/06 06:33:39;;;;;;;9.50;7.63;;;20.10;99.90;;;;;;6195536;28;20389;-78
2021/09/06 06:36:40;;;;;;;9.48;7.90;;;19.60;99.90;;;;;;6195273;28;20049;-78
2021/09/06 06:39:41;;;;;;;8.45;7.53;;;;;;;;;;6195440;28;20424;-77
2021/09/06 06:42:42;;;;;;;8.23;7.35;;;20.80;99.90;;;;;;6195128;28;20038;-77
2021/09/06 06:45:42;;;;;;;8.82;7.40;;;21.10;99.90;;;;;;6161385;28;20084;-77
2021/09/06 06:48:43;;;;;;;9.73;7.47;;;21.40;99.90;;;;;;6177726;28;20022;-77
2021/09/06 06:51:44;;;;;;;11.82;7.47;;;;;;;;;;6194769;28;20046;-78
2021/09/06 06:54:45;;;;;;;9.15;8.00;;;22.40;99.90;;;;;;6177205;28;20030;-78
2021/09/06 06:57:46;;;;;;;7.75;6.57;;;;;;;;;;6177367;28;20030;-77
2021/09/06 07:00:47;;;;;;;9.43;7.50;;;;;;;;;;6195061;28;20022;-78
2021/09/06 07:03:48;;;;;;;10.02;6.90;;;;;;;;;;6194795;28;20077;-79
2021/09/06 07:06:49;;;;;;;7.40;6.30;;;;;;;;;;6194880;28;20113;-77
2021/09/06 07:09:50;;;;;;;7.32;6.50;;;23.80;99.90;;;;;;6194614;28;20057;-78
2021/09/06 07:12:51;;;;;;;7.50;6.70;;;;;;;;;;6161053;28;20027;-78
2021/09/06 07:15:51;;;;;;;9.05;7.80;;;24.70;93.80;;;;;;6194678;28;20026;-78
2021/09/06 07:18:52;;;;;;;10.30;8.75;;;25.10;94.10;;;;;;6176366;28;20049;-78
2021/09/06 07:21:53;;;;;;;11.03;7.60;;;;;;;;;;6194932;28;20026;-78
2021/09/06 07:24:53;;;;;;;9.20;7.30;;;27.20;91.60;;;;;;6176775;28;20030;-78
2021/09/06 07:27:54;;;;;;;7.57;6.60;;;25.60;91.40;;;;;;6194781;28;20026;-78
2021/09/06 07:30:55;;;;;;;7.40;6.37;;;26.00;90.20;;;;;;6194495;28;20038;-77
2021/09/06 07:33:56;;;;;;;7.40;6.60;;;;;;;;;;6194685;28;20085;-78
2021/09/06 07:36:56;;;;;;;9.07;6.87;;;25.90;88.80;;;;;;6194409;28;20050;-78
2021/09/06 07:39:57;;;;;;;8.30;7.50;;;26.30;90.30;;;;;;6160548;28;20045;-78
2021/09/06 07:42:57;;;;;;;7.80;7.00;;;26.40;87.70;;;;;;6161022;28;20056;-78
2021/09/06 07:45:58;;;;;;;7.13;6.43;;;26.60;86.90;;;;;;6176572;28;20066;-78
2021/09/06 07:48:59;;;;;;;7.93;6.77;;;27.10;85.80;;;;;;6177061;28;20026;-78
2021/09/06 07:51:59;;;;;;;8.50;7.57;;;27.60;83.00;;;;;;6194318;28;20124;-78
2021/09/06 07:55:00;;;;;;;7.50;6.67;;;28.00;83.50;;;;;;6176896;28;20445;-78
2021/09/06 07:58:01;;;;;;;8.68;6.32;;;28.50;81.10;;;;;;6176457;28;20429;-79
2021/09/06 08:01:01;;;;;;;7.73;6.73;;;28.80;79.80;;;;;;6176659;28;20041;-78
2021/09/06 08:04:02;;;;;;;8.27;7.10;;;29.30;78.20;;;;;;6176835;28;20061;-78
2021/09/06 08:07:03;;;;;;;7.83;6.90;;;29.30;77.50;;;;;;6176271;28;20461;-78
2021/09/06 08:10:04;;;;;;;7.93;7.13;;;29.60;78.50;;;;;;6160817;28;20027;-79
2021/09/06 08:13:04;;;;;;;9.32;7.03;;;29.30;77.10;;;;;;6193738;28;20321;-78
2021/09/06 08:16:05;;;;;;;11.77;7.13;;;30.30;90.20;;;;;;6176419;28;20034;-78
2021/09/06 08:19:06;;;;;;;7.70;6.90;;;30.20;74.40;;;;;;6193714;28;20029;-78
2021/09/06 08:22:06;;;;;;;7.50;6.77;;;30.30;74.60;;;;;;6176228;28;20108;-78
2021/09/06 08:25:08;;;;;;;8.40;7.17;;;30.50;73.90;;;;;;6160149;28;20384;-78
2021/09/06 08:28:08;;;;;;;11.27;6.88;;;30.50;72.10;;;;;;6193979;28;20457;-78
2021/09/06 08:31:09;;;;;;;7.17;6.47;;;30.70;71.00;;;;;;6197198;28;20084;-78
2021/09/06 08:34:10;;;;;;;6.57;5.80;;;30.80;69.30;;;;;;6181080;28;20038;-78
2021/09/06 08:37:10;;;;;;;6.63;5.93;;;30.80;68.50;;;;;;6164363;28;20046;-78
2021/09/06 08:40:11;;;;;;;6.80;6.10;;;30.70;68.60;;;;;;6180221;28;20034;-78
2021/09/06 08:43:12;;;;;;;8.43;6.70;;;30.80;69.30;;;;;;6148543;28;20050;-78
2021/09/06 08:46:12;;;;;;;10.53;6.60;;;30.80;68.30;;;;;;6164360;28;20376;-78
2021/09/06 08:49:13;;;;;;;7.20;6.03;;;31.10;67.40;;;;;;6197735;28;20030;-78
2021/09/06 08:52:13;;;;;;;8.87;6.93;;;31.20;67.60;;;;;;6180076;28;20041;-78
2021/09/06 08:55:14;;;;;;;7.20;6.13;;;31.00;67.70;;;;;;6180695;28;20035;-78
2021/09/06 08:58:16;;;;;;;9.30;6.37;;;31.30;69.00;;;;;;6197843;28;20034;-78
2021/09/06 09:01:17;;;;;;;7.22;6.25;;;31.20;67.30;;;;;;6164221;28;20037;-78
2021/09/06 09:04:42;;;;;;;7.10;6.40;;;31.20;90.40;;;;;;6182057;28;20042;-78
2021/09/06 09:07:44;;;;;;;7.55;6.35;;;31.10;82.30;;;;;;6179611;28;20037;-78
2021/09/06 09:10:44;;;;;;;8.82;6.10;;;31.20;67.60;;;;;;6179590;28;20026;-79
2021/09/06 09:13:45;;;;;;;8.00;6.47;;;31.10;67.00;;;;;;6197201;28;20085;-78
2021/09/06 09:16:55;;;;;;;7.53;5.97;;;31.00;66.70;;;;;;6163921;28;20027;-78
2021/09/06 09:19:59;;;;;;;6.93;6.20;;;31.20;66.30;;;;;;6147584;28;20062;-78
2021/09/06 09:23:02;;;;;;;9.43;6.88;;;31.50;66.40;;;;;;6179099;28;20030;-78
2021/09/06 09:26:03;;;;;;;6.97;6.15;;;31.30;65.80;;;;;;6179623;28;20065;-78
2021/09/06 09:29:08;;;;;;;6.82;6.13;;;31.40;85.60;;;;;;6179109;28;20477;-78
2021/09/06 09:32:10;;;;;;;6.68;5.97;;;31.70;91.70;;;;;;6179768;28;20056;-78
2021/09/06 09:35:10;;;;;;;8.13;6.50;;;31.50;92.00;;;;;;6179032;28;20053;-78
2021/09/06 09:38:11;;;;;;;7.03;6.10;;;31.40;77.10;;;;;;6158360;28;20055;-78
2021/09/06 09:41:14;;;;;;;9.02;6.57;;;31.50;65.00;;;;;;6181148;28;20038;-78
2021/09/06 09:44:22;;;;;;;8.05;6.30;;;31.40;65.90;;;;;;6120726;28;20035;-78
2021/09/06 09:47:24;;;;;;;8.30;6.07;;;31.30;64.90;;;;;;6152352;28;20027;-78
2021/09/06 09:50:26;;;;;;;6.78;6.07;;;31.30;66.40;;;;;;6132041;28;20023;-78
2021/09/06 09:53:27;;;;;;;8.80;6.63;;;31.50;66.20;;;;;;6131946;28;20038;-77
2021/09/06 09:56:29;;;;;;;9.05;6.50;;;31.40;65.80;;;;;;6147835;28;20035;-78
2021/09/06 09:59:29;;;;;;;;;;;31.40;66.10;;;;;;6132206;28;20089;-78
2021/09/06 10:02:31;;;;;;;6.80;6.10;;;31.30;65.10;;;;;;6148813;28;19911;-78
2021/09/06 10:05:32;;;;;;;;;;;31.30;65.50;;;;;;6116261;28;20035;-78
2021/09/06 10:08:32;;;;;;;8.67;6.33;;;31.50;66.30;;;;;;6150622;28;19960;-79
2021/09/06 10:11:42;;;;;;;7.97;6.47;;;31.50;66.40;;;;;;6137517;28;20050;-79
2021/09/06 10:14:53;;;;;;;8.45;6.30;;;31.60;67.40;;;;;;6170417;28;20027;-78
2021/09/06 10:17:54;;;;;;;8.00;6.00;;;;;;;;;;6150890;28;20516;-78
2021/09/06 10:20:55;;;;;;;8.10;5.82;;;31.40;80.30;;;;;;6170867;28;20262;-78
2021/09/06 10:23:56;;;;;;;;;;;31.50;64.90;;;;;;6170352;28;20033;-78
2021/09/06 10:27:14;;;;;;;8.07;6.10;;;31.40;65.40;;;;;;6170002;28;19910;-78
2021/09/06 10:30:15;;;;;;;9.45;5.80;;;31.50;66.70;;;;;;6153961;28;20535;-78
2021/09/06 10:33:30;;;;;;;7.40;6.60;;;31.60;67.20;;;;;;6171149;28;20027;-78
2021/09/06 10:36:31;;;;;;;8.13;6.53;;;31.70;66.00;;;;;;6172594;28;20293;-78
2021/09/06 10:39:32;;;;;;;13.93;6.80;;;31.70;65.80;;;;;;6162302;28;20425;-78
2021/09/06 10:42:33;;;;;;;9.52;6.30;;;31.70;65.30;;;;;;6145571;28;20281;-78
2021/09/06 10:45:34;;;;;;;7.55;6.28;;;31.70;65.00;;;;;;6161694;28;20084;-78
2021/09/06 10:48:35;;;;;;;9.23;6.47;;;31.50;65.90;;;;;;6161463;28;20412;-78
2021/09/06 10:51:36;;;;;;;8.40;6.80;;;31.60;65.70;;;;;;6161001;28;20060;-78
2021/09/06 10:54:38;;;;;;;11.15;6.95;;;31.60;65.60;;;;;;6160944;28;20035;-78
2021/09/06 10:57:39;;;;;;;7.45;6.30;;;31.40;66.10;;;;;;6177578;28;20081;-78
2021/09/06 11:00:39;;;;;;;6.55;5.95;;;31.30;65.80;;;;;;6195129;28;20731;-78
2021/09/06 11:03:40;;;;;;;6.90;6.20;;;31.20;67.50;;;;;;6161465;28;20373;-78
2021/09/06 11:06:41;;;;;;;8.47;6.73;;;31.20;65.10;;;;;;6194710;28;21004;-78
2021/09/06 11:09:41;;;;;;;6.43;5.83;;;31.10;66.10;;;;;;6176955;28;20030;-78
2021/09/06 11:12:53;;;;;;;7.00;6.30;;;31.00;66.70;;;;;;6177355;28;20736;-78
2021/09/06 11:15:54;;;;;;;8.18;6.20;;;31.00;65.30;;;;;;6177317;28;20113;-78
2021/09/06 11:18:54;;;;;;;6.70;6.10;;;31.10;66.50;;;;;;6177136;28;20026;-78
2021/09/06 11:21:58;;;;;;;7.40;6.17;;;31.10;80.70;;;;;;6161058;28;20065;-78
2021/09/06 11:25:01;;;;;;;8.15;6.57;;;31.10;66.80;;;;;;6177374;28;20636;-78
2021/09/06 11:28:08;;;;;;;7.45;6.47;;;31.30;82.40;;;;;;6194456;28;20022;-78
2021/09/06 11:31:09;;;;;;;6.72;5.80;;;31.30;67.80;;;;;;6176980;28;20438;-78
2021/09/06 11:34:10;;;;;;;6.70;6.00;;;31.30;93.40;;;;;;6194563;28;20030;-77
2021/09/06 11:37:13;;;;;;;6.80;6.10;;;30.90;81.00;;;;;;6176291;28;20294;-77
2021/09/06 11:40:14;;;;;;;6.95;6.25;;;31.20;92.90;;;;;;6194326;28;20029;-78
2021/09/06 11:43:15;;;;;;;6.70;6.10;;;30.70;92.90;;;;;;6176768;28;20043;-78
2021/09/06 11:46:16;;;;;;;6.83;6.13;;;;;;;;;;6160518;28;20124;-78
2021/09/06 11:49:18;;;;;;;9.77;6.80;;;;;;;;;;6194288;28;20262;-78
2021/09/06 11:52:26;;;;;;;;;;;30.90;76.30;;;;;;6194899;28;20501;-78
2021/09/06 11:55:27;;;;;;;7.03;6.32;;;30.60;93.40;;;;;;6176592;28;19905;-78
2021/09/06 11:58:28;;;;;;;6.93;6.22;;;;;;;;;;6194219;28;20113;-78
2021/09/06 12:01:29;;;;;;;6.85;5.90;;;30.80;68.70;;;;;;6194406;28;20153;-78
2021/09/06 12:04:37;;;;;;;6.83;6.13;;;30.40;67.20;;;;;;6177105;28;20026;-78
2021/09/06 12:07:48;;;;;;;7.82;6.65;;;30.50;68.80;;;;;;6181722;28;20113;-78
2021/09/06 12:10:49;;;;;;;;;;;30.30;67.30;;;;;;6181500;28;20034;-78
2021/09/06 12:13:57;;;;;;;7.93;6.37;;;30.30;68.70;;;;;;6199004;28;20281;-78
2021/09/06 12:17:00;;;;;;;6.90;6.13;;;30.40;69.00;;;;;;6180811;28;20134;-78
2021/09/06 12:20:07;;;;;;;7.45;6.15;;;29.90;85.30;;;;;;6180792;28;20034;-77
2021/09/06 12:23:10;;;;;;;7.38;6.40;;;30.00;68.90;;;;;;6180864;28;20117;-77
2021/09/06 12:26:11;;;;;;;7.40;6.60;;;29.80;70.40;;;;;;6198241;28;20030;-77
2021/09/06 12:29:11;;;;;;;7.10;6.40;;;29.70;71.70;;;;;;6180596;28;20033;-77
2021/09/06 12:32:16;;;;;;;6.93;6.10;;;29.60;68.70;;;;;;6180533;28;20042;-77
2021/09/06 12:35:17;;;;;;;7.07;6.38;;;29.40;69.10;;;;;;6180246;28;20034;-77
2021/09/06 12:38:17;;;;;;;8.57;7.10;;;29.40;69.40;;;;;;6180369;28;20097;-77
2021/09/06 12:41:18;;;;;;;9.73;6.57;;;29.30;69.60;;;;;;6198085;28;20035;-77
2021/09/06 12:44:18;;;;;;;9.30;6.77;;;29.50;71.30;;;;;;6198207;28;20030;-77
2021/09/06 12:47:19;;;;;;;7.80;7.07;;;29.40;70.80;;;;;;6198098;28;20034;-77
2021/09/06 12:50:20;;;;;;;7.97;6.20;;;29.40;71.40;;;;;;6197546;28;20042;-77
2021/09/06 12:53:21;;;;;;;7.22;6.53;;;29.60;71.50;;;;;;6180419;28;20034;-78
2021/09/06 12:56:21;;;;;;;7.40;6.70;;;29.50;70.70;;;;;;6198079;28;20034;-77
2021/09/06 12:59:22;;;;;;;7.93;6.20;;;29.50;69.70;;;;;;6163950;28;20042;-77
2021/09/06 13:02:23;;;;;;;7.03;6.32;;;29.20;70.70;;;;;;6197450;28;20486;-77
2021/09/06 13:05:24;;;;;;;6.80;6.20;;;29.30;70.20;;;;;;6197896;28;20030;-78
2021/09/06 13:08:25;;;;;;;7.50;6.80;;;29.10;72.10;;;;;;6179733;28;20034;-77
2021/09/06 13:11:25;;;;;;;7.33;6.60;;;29.10;72.00;;;;;;6197300;28;20038;-77
2021/09/06 13:14:28;;;;;;;7.17;6.20;;;29.10;73.10;;;;;;6179913;28;20041;-77
2021/09/06 13:17:29;;;;;;;6.80;6.20;;;29.80;93.30;;;;;;6196344;28;20084;-78
2021/09/06 13:20:30;;;;;;;;;;;29.40;70.70;;;;;;6198053;28;20368;-78
2021/09/06 13:23:30;;;;;;;7.33;6.63;;;29.60;87.40;;;;;;6179786;28;19910;-77
2021/09/06 13:26:31;;;;;;;8.80;6.40;;;29.40;86.10;;;;;;6179532;28;20029;-77
2021/09/06 13:29:32;;;;;;;8.97;6.40;;;29.70;94.40;;;;;;6179174;28;20049;-77
2021/09/06 13:32:38;;;;;;;6.70;6.10;;;29.70;91.00;;;;;;6163051;28;20042;-78
2021/09/06 13:35:39;;;;;;;7.03;6.32;;;29.60;91.20;;;;;;6163522;28;20361;-78
2021/09/06 13:38:39;;;;;;;7.07;6.00;;;30.00;92.00;;;;;;6162807;28;20063;-78
2021/09/06 13:41:40;;;;;;;6.83;6.00;;;29.80;71.80;;;;;;6178837;28;20027;-77
2021/09/06 13:44:40;;;;;;;7.67;6.43;;;29.80;93.80;;;;;;6179077;28;20062;-78
2021/09/06 13:47:41;;;;;;;7.67;6.47;;;;;;;;;;6196741;28;20034;-78
2021/09/06 13:50:42;;;;;;;7.88;6.20;;;;;;;;;;6196158;28;20547;-78
2021/09/06 13:53:43;;;;;;;8.23;6.50;;;30.00;94.70;;;;;;6179082;28;20061;-78
2021/09/06 13:56:44;;;;;;;9.17;6.50;;;29.80;94.30;;;;;;6196486;28;20030;-78
2021/09/06 13:59:45;;;;;;;;;;;29.70;82.70;;;;;;6196830;28;20030;-78
2021/09/06 14:02:45;;;;;;;7.27;6.57;;;30.10;83.40;;;;;;6196040;28;19913;-77
2021/09/06 14:05:46;;;;;;;7.63;6.23;;;30.00;70.20;;;;;;6196192;28;20101;-77
2021/09/06 14:08:47;;;;;;;7.10;6.30;;;30.00;70.40;;;;;;6162151;28;20030;-77
2021/09/06 14:11:49;;;;;;;7.00;6.27;;;30.00;72.10;;;;;;6195633;28;20746;-77
2021/09/06 14:14:49;;;;;;;8.10;6.45;;;30.00;71.80;;;;;;6196168;28;20433;-78
2021/09/06 14:17:50;;;;;;;7.53;6.27;;;30.10;70.40;;;;;;6195598;28;20033;-77
2021/09/06 14:20:50;;;;;;;9.23;7.63;;;30.00;71.90;;;;;;6178202;28;20049;-77
2021/09/06 14:23:51;;;;;;;7.63;6.90;;;30.00;72.90;;;;;;6177950;28;20034;-77
2021/09/06 14:26:52;;;;;;;9.33;6.57;;;30.00;72.60;;;;;;6195525;28;20022;-77
2021/09/06 14:29:52;;;;;;;8.27;6.43;;;30.00;71.50;;;;;;6195138;28;20491;-77
2021/09/06 14:32:53;;;;;;;9.00;7.00;;;30.00;72.80;;;;;;6177877;28;20375;-77
2021/09/06 14:35:55;;;;;;;6.90;6.20;;;29.90;71.40;;;;;;6178105;28;20135;-77
2021/09/06 14:38:58;;;;;;;8.80;6.60;;;29.90;71.70;;;;;;6177866;28;20376;-77
2021/09/06 14:41:59;;;;;;;6.97;6.28;;;29.90;72.70;;;;;;6177893;28;20104;-77
2021/09/06 14:45:00;;;;;;;9.77;6.87;;;29.90;71.70;;;;;;6177754;28;20065;-77
2021/09/06 14:48:00;;;;;;;8.17;7.17;;;30.20;72.10;;;;;;6195553;28;20030;-77
2021/09/06 14:51:01;;;;;;;8.53;6.70;;;30.00;72.40;;;;;;6177495;28;20500;-77
2021/09/06 14:54:02;;;;;;;14.15;7.10;;;29.90;71.40;;;;;;6161478;28;20033;-77
2021/09/06 14:57:03;;;;;;;8.80;6.73;;;29.80;71.90;;;;;;6177604;28;20038;-77
2021/09/06 15:00:07;;;;;;;7.75;7.00;;;29.70;71.00;;;;;;6177736;28;20584;-77
2021/09/06 15:03:08;;;;;;;9.23;6.93;;;29.80;72.70;;;;;;6162076;28;20038;-77
2021/09/06 15:06:08;;;;;;;10.63;6.63;;;29.70;72.40;;;;;;6177371;28;20022;-77
2021/09/06 15:09:09;;;;;;;12.63;6.70;;;29.00;73.00;;;;;;6160903;28;20689;-77
2021/09/06 15:12:09;;;;;;;10.30;7.67;;;27.20;76.30;;;;;;6194857;28;20113;-76
2021/09/06 15:15:10;;;;;;;12.67;7.67;;;26.00;85.50;;;;;;6194583;28;20543;-77
2021/09/06 15:18:11;;;;;;;9.13;7.47;;;25.50;90.70;;;;;;6177236;28;20030;-77
2021/09/06 15:21:12;;;;;;;9.70;7.20;;;25.70;97.70;;;;;;6177073;28;20429;-77
2021/09/06 15:24:13;;;;;;;13.63;7.67;;;25.40;90.30;;;;;;6145126;28;20081;-77
2021/09/06 15:27:13;;;;;;;10.33;7.63;;;24.80;93.50;;;;;;6161185;28;20018;-77
2021/09/06 15:30:26;;;;;;;10.50;7.73;;;24.30;95.30;;;;;;6176698;28;20185;-78
2021/09/06 15:33:26;;;;;;;8.40;7.18;;;23.90;95.60;;;;;;6161889;28;20053;-77
2021/09/06 15:36:27;;;;;;;10.93;7.97;;;23.60;99.90;;;;;;6176448;28;20077;-77
2021/09/06 15:39:27;;;;;;;8.70;7.80;;;23.50;99.90;;;;;;6195518;28;20035;-77
2021/09/06 15:42:29;;;;;;;9.93;8.17;;;23.20;99.90;;;;;;6181748;28;20137;-78
2021/09/06 15:45:29;;;;;;;10.73;8.48;;;22.80;99.90;;;;;;6181589;28;20027;-77
2021/09/06 15:48:30;;;;;;;11.50;8.70;;;22.60;99.90;;;;;;6181808;28;20045;-77
2021/09/06 15:51:30;;;;;;;11.10;8.40;;;22.40;99.90;;;;;;6199279;28;20039;-77
2021/09/06 15:54:31;;;;;;;11.50;7.80;;;22.50;99.90;;;;;;6181738;28;20081;-77